^^
Grace C. Lehan Memorial Weather Station Historical Data
Daily Summary for May 1, 2021 Units:  Both    English   Metric
Daily Weekly Monthly Yearly
  High: Low: Average:
Temperature: 68.2 °F /  20.1 °C 45.4 °F /  7.4 °C 56.4 °F /  13.6 °C
Dew Point: 53.9 °F /  12.2 °C 43.2 °F /  6.2 °C 48 °F /  8.9 °C
Humidity: 94.7% 50.6% 76%
Wind Speed: 6mph /  9.7km/h - 0.8mph /  1.3km/h
Wind Gust: 14mph /  22.5km/h - -
Wind- - WNW
Pressure: 30.20 in /  1022.6 hPa 30.12 in /  1019.9 hPa -
Precipitation: 0.00 in /  0 mm    
 
 
Tabular Data for May 1, 2021
Time Temperature Dew Point Pressure Wind Wind Speed Wind Gust Humidity Rainfall Rate (Hourly) solar
00:09 50.7 °F /  10.4 °C 46.9 °F /  8.3 °C 30.13in /  1020.2hPa Calm     86.9% 0.00in /  0mm 0 W/m2
00:14 50.6 °F /  10.3 °C 46.8 °F /  8.2 °C 30.13in /  1020.2hPa Calm     87% 0.00in /  0mm 0 W/m2
00:19 50.4 °F /  10.2 °C 46.7 °F /  8.2 °C 30.13in /  1020.2hPa Calm     87% 0.00in /  0mm 0 W/m2
00:24 50.3 °F /  10.2 °C 46.6 °F /  8.1 °C 30.13in /  1020.2hPa Calm     87% 0.00in /  0mm 0 W/m2
00:29 50.2 °F /  10.1 °C 46.7 °F /  8.2 °C 30.13in /  1020.2hPa Calm     87.7% 0.00in /  0mm 0 W/m2
00:34 50.1 °F /  10.1 °C 46.7 °F /  8.2 °C 30.12in /  1019.9hPa Calm     88% 0.00in /  0mm 0 W/m2
00:39 50 °F /  10 °C 46.6 °F /  8.1 °C 30.12in /  1019.9hPa Calm     88% 0.00in /  0mm 0 W/m2
00:44 49.9 °F /  9.9 °C 46.5 °F /  8.1 °C 30.12in /  1019.9hPa Calm     88% 0.00in /  0mm 0 W/m2
00:49 49.8 °F /  9.9 °C 46.4 °F /  8 °C 30.12in /  1019.9hPa Calm     88% 0.00in /  0mm 0 W/m2
00:54 49.8 °F /  9.9 °C 46.5 °F /  8.1 °C 30.12in /  1019.9hPa Calm     88.4% 0.00in /  0mm 0 W/m2
00:59 49.7 °F /  9.8 °C 46.6 °F /  8.1 °C 30.12in /  1019.9hPa Calm     89% 0.00in /  0mm 0 W/m2
01:04 49.7 °F /  9.8 °C 46.6 °F /  8.1 °C 30.12in /  1019.9hPa Calm     89% 0.00in /  0mm 0 W/m2
01:09 49.7 °F /  9.8 °C 46.6 °F /  8.1 °C 30.12in /  1019.9hPa Calm     89% 0.00in /  0mm 0 W/m2
01:14 49.6 °F /  9.8 °C 46.8 °F /  8.2 °C 30.13in /  1020.2hPa Calm     90% 0.00in /  0mm 0 W/m2
01:19 49.6 °F /  9.8 °C 46.8 °F /  8.2 °C 30.13in /  1020.2hPa Calm     90% 0.00in /  0mm 0 W/m2
01:24 49.5 °F /  9.7 °C 46.7 °F /  8.2 °C 30.13in /  1020.2hPa Calm     90% 0.00in /  0mm 0 W/m2
01:29 49.4 °F /  9.7 °C 46.6 °F /  8.1 °C 30.13in /  1020.2hPa Calm     90% 0.00in /  0mm 0 W/m2
01:34 49.4 °F /  9.7 °C 46.6 °F /  8.1 °C 30.13in /  1020.2hPa Calm     90% 0.00in /  0mm 0 W/m2
01:39 49.4 °F /  9.7 °C 46.6 °F /  8.1 °C 30.13in /  1020.2hPa Calm     90% 0.00in /  0mm 0 W/m2
01:44 49.2 °F /  9.6 °C 46.4 °F /  8 °C 30.13in /  1020.2hPa Calm     90% 0.00in /  0mm 0 W/m2
01:49 49.1 °F /  9.5 °C 46.3 °F /  7.9 °C 30.13in /  1020.2hPa Calm     90% 0.00in /  0mm 0 W/m2
01:54 49 °F /  9.4 °C 46.2 °F /  7.9 °C 30.13in /  1020.2hPa Calm     90% 0.00in /  0mm 0 W/m2
01:59 49 °F /  9.4 °C 46.2 °F /  7.9 °C 30.13in /  1020.2hPa Calm     90% 0.00in /  0mm 0 W/m2
02:04 48.9 °F /  9.4 °C 46.1 °F /  7.8 °C 30.13in /  1020.2hPa Calm     90% 0.00in /  0mm 0 W/m2
02:09 48.9 °F /  9.4 °C 46.1 °F /  7.8 °C 30.13in /  1020.2hPa NNW 0.1mph /  0.2km/h 3mph /  4.8km/h 90% 0.00in /  0mm 0 W/m2
02:14 48.9 °F /  9.4 °C 46.1 °F /  7.8 °C 30.13in /  1020.2hPa NNW 0.2mph /  0.3km/h 3mph /  4.8km/h 90% 0.00in /  0mm 0 W/m2
02:19 48.9 °F /  9.4 °C 46.1 °F /  7.8 °C 30.13in /  1020.2hPa Calm   3mph /  4.8km/h 90% 0.00in /  0mm 0 W/m2
02:24 48.9 °F /  9.4 °C 46.1 °F /  7.8 °C 30.13in /  1020.2hPa Calm   3mph /  4.8km/h 90% 0.00in /  0mm 0 W/m2
02:29 48.9 °F /  9.4 °C 46.1 °F /  7.8 °C 30.13in /  1020.2hPa Calm   3mph /  4.8km/h 90% 0.00in /  0mm 0 W/m2
02:34 49 °F /  9.4 °C 46.2 °F /  7.9 °C 30.13in /  1020.2hPa Calm   3mph /  4.8km/h 90% 0.00in /  0mm 0 W/m2
02:39 48.9 °F /  9.4 °C 46.1 °F /  7.8 °C 30.14in /  1020.5hPa Calm     90% 0.00in /  0mm 0 W/m2
02:44 48.9 °F /  9.4 °C 46.1 °F /  7.8 °C 30.14in /  1020.5hPa Calm     90% 0.00in /  0mm 0 W/m2
02:49 48.8 °F /  9.3 °C 46 °F /  7.8 °C 30.14in /  1020.5hPa Calm     90% 0.00in /  0mm 0 W/m2
02:54 48.8 °F /  9.3 °C 46 °F /  7.8 °C 30.13in /  1020.2hPa Calm     90% 0.00in /  0mm 0 W/m2
02:59 48.7 °F /  9.3 °C 45.9 °F /  7.7 °C 30.13in /  1020.2hPa Calm     90% 0.00in /  0mm 0 W/m2
03:04 48.7 °F /  9.3 °C 45.9 °F /  7.7 °C 30.13in /  1020.2hPa Calm     90% 0.00in /  0mm 0 W/m2
03:09 48.7 °F /  9.3 °C 45.9 °F /  7.7 °C 30.13in /  1020.2hPa Calm     90% 0.00in /  0mm 0 W/m2
03:14 48.6 °F /  9.2 °C 45.5 °F /  7.5 °C 30.13in /  1020.2hPa Calm     89.1% 0.00in /  0mm 0 W/m2
03:19 48.5 °F /  9.2 °C 45.4 °F /  7.4 °C 30.13in /  1020.2hPa Calm     89% 0.00in /  0mm 0 W/m2
03:24 48.4 °F /  9.1 °C 45.3 °F /  7.4 °C 30.13in /  1020.2hPa Calm     89% 0.00in /  0mm 0 W/m2
03:29 48.4 °F /  9.1 °C 45.3 °F /  7.4 °C 30.13in /  1020.2hPa Calm     89% 0.00in /  0mm 0 W/m2
03:34 48.3 °F /  9.1 °C 45.2 °F /  7.3 °C 30.13in /  1020.2hPa Calm     89% 0.00in /  0mm 0 W/m2
03:39 48.3 °F /  9.1 °C 45.2 °F /  7.3 °C 30.13in /  1020.2hPa Calm     89% 0.00in /  0mm 0 W/m2
03:44 48 °F /  8.9 °C 44.9 °F /  7.2 °C 30.13in /  1020.2hPa Calm     89% 0.00in /  0mm 0 W/m2
03:49 47.8 °F /  8.8 °C 44.7 °F /  7.1 °C 30.13in /  1020.2hPa Calm     89% 0.00in /  0mm 0 W/m2
03:54 47.6 °F /  8.7 °C 44.8 °F /  7.1 °C 30.13in /  1020.2hPa Calm     90% 0.00in /  0mm 0 W/m2
03:59 47.4 °F /  8.6 °C 44.6 °F /  7 °C 30.14in /  1020.5hPa Calm     90% 0.00in /  0mm 0 W/m2
04:00 47.3 °F /  8.5 °C 44.7 °F /  7.1 °C 30.14in /  1020.5hPa Calm     90.5% 0.00in /  0mm 0 W/m2
04:09 47.2 °F /  8.4 °C 44.7 °F /  7.1 °C 30.14in /  1020.5hPa Calm     91% 0.00in /  0mm 0 W/m2
04:14 47.2 °F /  8.4 °C 44.7 °F /  7.1 °C 30.14in /  1020.5hPa Calm     91% 0.00in /  0mm 0 W/m2
04:19 47.2 °F /  8.4 °C 44.7 °F /  7.1 °C 30.14in /  1020.5hPa Calm     91% 0.00in /  0mm 0 W/m2
04:24 47.3 °F /  8.5 °C 45 °F /  7.2 °C 30.14in /  1020.5hPa Calm     91.7% 0.00in /  0mm 0 W/m2
04:29 47.2 °F /  8.4 °C 45 °F /  7.2 °C 30.15in /  1020.9hPa Calm     92% 0.00in /  0mm 0 W/m2
04:34 47.2 °F /  8.4 °C 45 °F /  7.2 °C 30.15in /  1020.9hPa Calm     92% 0.00in /  0mm 0 W/m2
04:39 47.2 °F /  8.4 °C 45 °F /  7.2 °C 30.15in /  1020.9hPa Calm     92% 0.00in /  0mm 0 W/m2
04:44 47.2 °F /  8.4 °C 45 °F /  7.2 °C 30.15in /  1020.9hPa Calm     92% 0.00in /  0mm 0 W/m2
04:49 47.2 °F /  8.4 °C 45 °F /  7.2 °C 30.15in /  1020.9hPa Calm   2mph /  3.2km/h 92% 0.00in /  0mm 0 W/m2
04:54 47.2 °F /  8.4 °C 45 °F /  7.2 °C 30.15in /  1020.9hPa Calm   2mph /  3.2km/h 92% 0.00in /  0mm 0 W/m2
04:59 47.3 °F /  8.5 °C 45.1 °F /  7.3 °C 30.15in /  1020.9hPa NNW 0.4mph /  0.6km/h 5mph /  8km/h 92% 0.00in /  0mm 0 W/m2
05:04 47.5 °F /  8.6 °C 45.3 °F /  7.4 °C 30.15in /  1020.9hPa Calm   5mph /  8km/h 92% 0.00in /  0mm 0 W/m2
05:09 47.6 °F /  8.7 °C 45.4 °F /  7.4 °C 30.15in /  1020.9hPa Calm     91.9% 0.00in /  0mm 0 W/m2
05:14 47.6 °F /  8.7 °C 45.2 °F /  7.3 °C 30.16in /  1021.2hPa Calm     91% 0.00in /  0mm 0 W/m2
05:19 47.6 °F /  8.7 °C 45.2 °F /  7.3 °C 30.16in /  1021.2hPa Calm     91% 0.00in /  0mm 0 W/m2
05:24 47.6 °F /  8.7 °C 45.1 °F /  7.3 °C 30.16in /  1021.2hPa Calm     91% 0.00in /  0mm 0 W/m2
05:29 47.5 °F /  8.6 °C 45.1 °F /  7.3 °C 30.16in /  1021.2hPa Calm     91% 0.00in /  0mm 0 W/m2
05:34 47.5 °F /  8.6 °C 45 °F /  7.2 °C 30.16in /  1021.2hPa Calm     91% 0.00in /  0mm 0 W/m2
05:39 47.4 °F /  8.6 °C 44.9 °F /  7.2 °C 30.16in /  1021.2hPa Calm     91% 0.00in /  0mm 0 W/m2
05:44 47.3 °F /  8.5 °C 44.8 °F /  7.1 °C 30.16in /  1021.2hPa Calm     91% 0.00in /  0mm 0 W/m2
05:49 47.2 °F /  8.4 °C 44.7 °F /  7.1 °C 30.16in /  1021.2hPa Calm     91% 0.00in /  0mm 0 W/m2
05:54 47 °F /  8.3 °C 44.5 °F /  6.9 °C 30.17in /  1021.6hPa Calm     91% 0.00in /  0mm 0 W/m2
05:59 46.9 °F /  8.3 °C 44.4 °F /  6.9 °C 30.17in /  1021.6hPa Calm     91% 0.00in /  0mm 0 W/m2
06:04 46.8 °F /  8.2 °C 44.3 °F /  6.8 °C 30.16in /  1021.2hPa Calm     91% 0.00in /  0mm 0 W/m2
06:09 46.7 °F /  8.2 °C 44.2 °F /  6.8 °C 30.16in /  1021.2hPa Calm     91% 0.00in /  0mm 0 W/m2
06:14 46.6 °F /  8.1 °C 44.1 °F /  6.7 °C 30.17in /  1021.6hPa Calm     91% 0.00in /  0mm 0 W/m2
06:19 46.5 °F /  8.1 °C 44 °F /  6.7 °C 30.17in /  1021.6hPa Calm     91% 0.00in /  0mm 0 W/m2
06:24 46.3 °F /  7.9 °C 43.9 °F /  6.6 °C 30.17in /  1021.6hPa Calm     91% 0.00in /  0mm 0 W/m2
06:29 46.2 °F /  7.9 °C 43.7 °F /  6.5 °C 30.17in /  1021.6hPa Calm     91% 0.00in /  0mm 0 W/m2
06:34 46.1 °F /  7.8 °C 43.6 °F /  6.4 °C 30.17in /  1021.6hPa Calm     91.1% 0.00in /  0mm 0 W/m2
06:39 45.9 °F /  7.7 °C 43.5 °F /  6.4 °C 30.17in /  1021.6hPa Calm     91% 0.00in /  0mm 0 W/m2
06:44 45.8 °F /  7.7 °C 43.6 °F /  6.4 °C 30.17in /  1021.6hPa Calm     92% 0.00in /  0mm 0 W/m2
06:49 45.6 °F /  7.6 °C 43.3 °F /  6.3 °C 30.17in /  1021.6hPa Calm     91.6% 0.00in /  0mm 0 W/m2
06:54 45.5 °F /  7.5 °C 43.3 °F /  6.3 °C 30.17in /  1021.6hPa Calm     92% 0.00in /  0mm 0 W/m2
06:59 45.4 °F /  7.4 °C 43.2 °F /  6.2 °C 30.18in /  1021.9hPa Calm     92% 0.00in /  0mm 5 W/m2
07:04 45.5 °F /  7.5 °C 43.5 °F /  6.4 °C 30.18in /  1021.9hPa Calm     92.6% 0.00in /  0mm 7 W/m2
07:09 45.5 °F /  7.5 °C 43.6 °F /  6.4 °C 30.18in /  1021.9hPa Calm     93% 0.00in /  0mm 9 W/m2
07:14 45.5 °F /  7.5 °C 43.6 °F /  6.4 °C 30.18in /  1021.9hPa Calm     93% 0.00in /  0mm 9 W/m2
07:19 45.5 °F /  7.5 °C 43.6 °F /  6.4 °C 30.18in /  1021.9hPa Calm     93% 0.00in /  0mm 11 W/m2
07:24 45.5 °F /  7.5 °C 43.6 °F /  6.4 °C 30.18in /  1021.9hPa Calm     93% 0.00in /  0mm 12 W/m2
07:29 45.6 °F /  7.6 °C 43.7 °F /  6.5 °C 30.18in /  1021.9hPa Calm     93% 0.00in /  0mm 18 W/m2
07:34 45.6 °F /  7.6 °C 43.8 °F /  6.6 °C 30.18in /  1021.9hPa Calm   1mph /  1.6km/h 93.1% 0.00in /  0mm 18 W/m2
07:39 45.8 °F /  7.7 °C 44.2 °F /  6.8 °C 30.18in /  1021.9hPa Calm   1mph /  1.6km/h 94% 0.00in /  0mm 16 W/m2
07:44 46.1 °F /  7.8 °C 44.4 °F /  6.9 °C 30.19in /  1022.2hPa Calm   1mph /  1.6km/h 94% 0.00in /  0mm 19 W/m2
07:49 46.3 °F /  7.9 °C 44.7 °F /  7.1 °C 30.19in /  1022.2hPa Calm   1mph /  1.6km/h 94% 0.00in /  0mm 23 W/m2
07:54 46.6 °F /  8.1 °C 45 °F /  7.2 °C 30.18in /  1021.9hPa Calm   1mph /  1.6km/h 94% 0.00in /  0mm 21 W/m2
07:59 46.8 °F /  8.2 °C 45.2 °F /  7.3 °C 30.18in /  1021.9hPa Calm   1mph /  1.6km/h 94% 0.00in /  0mm 21 W/m2
08:00 46.9 °F /  8.3 °C 45.3 °F /  7.4 °C 30.18in /  1021.9hPa Calm   1mph /  1.6km/h 94% 0.00in /  0mm 19 W/m2
08:09 47.2 °F /  8.4 °C 45.6 °F /  7.6 °C 30.19in /  1022.2hPa Calm     94% 0.00in /  0mm 32 W/m2
08:14 47.4 °F /  8.6 °C 45.8 °F /  7.7 °C 30.19in /  1022.2hPa Calm     94% 0.00in /  0mm 26 W/m2
08:19 47.7 °F /  8.7 °C 46 °F /  7.8 °C 30.19in /  1022.2hPa Calm     94% 0.00in /  0mm 30 W/m2
08:24 47.9 °F /  8.8 °C 46.4 °F /  8 °C 30.19in /  1022.2hPa Calm     94.4% 0.00in /  0mm 25 W/m2
08:29 48.3 °F /  9.1 °C 46.8 °F /  8.2 °C 30.19in /  1022.2hPa Calm     94.7% 0.00in /  0mm 25 W/m2
08:34 48.7 °F /  9.3 °C 47.2 °F /  8.4 °C 30.19in /  1022.2hPa Calm     94.7% 0.00in /  0mm 37 W/m2
08:39 49 °F /  9.4 °C 47.4 °F /  8.6 °C 30.19in /  1022.2hPa Calm     94.2% 0.00in /  0mm 39 W/m2
08:44 49.4 °F /  9.7 °C 47.7 °F /  8.7 °C 30.19in /  1022.2hPa Calm     94% 0.00in /  0mm 39 W/m2
08:49 49.8 °F /  9.9 °C 48.1 °F /  8.9 °C 30.19in /  1022.2hPa NNW 0.2mph /  0.3km/h 3mph /  4.8km/h 94% 0.00in /  0mm 42 W/m2
08:54 50.4 °F /  10.2 °C 48.6 °F /  9.2 °C 30.19in /  1022.2hPa Calm   3mph /  4.8km/h 93.8% 0.00in /  0mm 49 W/m2
08:59 51 °F /  10.6 °C 49.1 °F /  9.5 °C 30.20in /  1022.6hPa Calm   3mph /  4.8km/h 93% 0.00in /  0mm 62 W/m2
09:04 51.7 °F /  10.9 °C 49.4 °F /  9.7 °C 30.20in /  1022.6hPa Calm   3mph /  4.8km/h 91.7% 0.00in /  0mm 243 W/m2
09:09 52.5 °F /  11.4 °C 49.7 °F /  9.8 °C 30.20in /  1022.6hPa Calm     90.1% 0.00in /  0mm 404 W/m2
09:14 53.5 °F /  11.9 °C 50.1 °F /  10.1 °C 30.20in /  1022.6hPa Calm     88.2% 0.00in /  0mm 422 W/m2
09:19 55.1 °F /  12.8 °C 51.1 °F /  10.6 °C 30.20in /  1022.6hPa Calm     86.3% 0.00in /  0mm 445 W/m2
09:24 56.7 °F /  13.7 °C 51.9 °F /  11.1 °C 30.20in /  1022.6hPa NNW 0.1mph /  0.2km/h 2mph /  3.2km/h 83.8% 0.00in /  0mm 462 W/m2
09:29 58.1 °F /  14.5 °C 52.1 °F /  11.2 °C 30.20in /  1022.6hPa WNW 0.7mph /  1.1km/h 6mph /  9.7km/h 80.6% 0.00in /  0mm 482 W/m2
09:34 59.5 °F /  15.3 °C 52.2 °F /  11.2 °C 30.19in /  1022.2hPa West 2.5mph /  4km/h 9mph /  14.5km/h 76.8% 0.00in /  0mm 497 W/m2
09:39 60.6 °F /  15.9 °C 52.7 °F /  11.5 °C 30.19in /  1022.2hPa WNW 0.2mph /  0.3km/h 9mph /  14.5km/h 75.2% 0.00in /  0mm 512 W/m2
09:44 61.6 °F /  16.4 °C 53 °F /  11.7 °C 30.19in /  1022.2hPa WSW 0.8mph /  1.3km/h 9mph /  14.5km/h 73.3% 0.00in /  0mm 526 W/m2
09:49 62.5 °F /  16.9 °C 52.5 °F /  11.4 °C 30.19in /  1022.2hPa WNW 0.7mph /  1.1km/h 9mph /  14.5km/h 69.8% 0.00in /  0mm 538 W/m2
09:54 63.3 °F /  17.4 °C 53.1 °F /  11.7 °C 30.19in /  1022.2hPa NW 0.3mph /  0.5km/h 9mph /  14.5km/h 69.3% 0.00in /  0mm 550 W/m2
09:59 64.1 °F /  17.8 °C 53.2 °F /  11.8 °C 30.19in /  1022.2hPa NW 0.3mph /  0.5km/h 9mph /  14.5km/h 67.8% 0.00in /  0mm 561 W/m2
10:04 64.6 °F /  18.1 °C 53.5 °F /  11.9 °C 30.19in /  1022.2hPa Calm   9mph /  14.5km/h 67.2% 0.00in /  0mm 571 W/m2
10:09 65.1 °F /  18.4 °C 53.8 °F /  12.1 °C 30.19in /  1022.2hPa NW 0.1mph /  0.2km/h 2mph /  3.2km/h 66.6% 0.00in /  0mm 582 W/m2
10:14 65.7 °F /  18.7 °C 53.7 °F /  12.1 °C 30.19in /  1022.2hPa NW 0.9mph /  1.4km/h 5mph /  8km/h 65.2% 0.00in /  0mm 596 W/m2
10:19 66.2 °F /  19 °C 53.6 °F /  12 °C 30.19in /  1022.2hPa NW 0.7mph /  1.1km/h 5mph /  8km/h 63.7% 0.00in /  0mm 608 W/m2
10:24 66.6 °F /  19.2 °C 53.7 °F /  12.1 °C 30.19in /  1022.2hPa NW 0.2mph /  0.3km/h 5mph /  8km/h 63.2% 0.00in /  0mm 617 W/m2
10:29 66.8 °F /  19.3 °C 53.9 °F /  12.2 °C 30.19in /  1022.2hPa NW 0.4mph /  0.6km/h 5mph /  8km/h 63.3% 0.00in /  0mm 628 W/m2
10:34 67 °F /  19.4 °C 53.2 °F /  11.8 °C 30.19in /  1022.2hPa NW 0.8mph /  1.3km/h 5mph /  8km/h 61.2% 0.00in /  0mm 638 W/m2
10:39 67.3 °F /  19.6 °C 53.3 °F /  11.8 °C 30.19in /  1022.2hPa NNW 0.6mph /  1km/h 4mph /  6.4km/h 60.8% 0.00in /  0mm 647 W/m2
10:44 67.6 °F /  19.8 °C 53.2 °F /  11.8 °C 30.18in /  1021.9hPa Calm   4mph /  6.4km/h 60% 0.00in /  0mm 657 W/m2
10:49 67.8 °F /  19.9 °C 53.5 °F /  11.9 °C 30.18in /  1021.9hPa NNE 0.3mph /  0.5km/h 4mph /  6.4km/h 60.2% 0.00in /  0mm 668 W/m2
10:54 68.1 °F /  20.1 °C 52.4 °F /  11.3 °C 30.18in /  1021.9hPa West 1.9mph /  3.1km/h 9mph /  14.5km/h 57.3% 0.00in /  0mm 677 W/m2
10:59 68.1 °F /  20.1 °C 51.9 °F /  11.1 °C 30.17in /  1021.6hPa WNW 1.7mph /  2.7km/h 9mph /  14.5km/h 56.3% 0.00in /  0mm 684 W/m2
11:04 68.2 °F /  20.1 °C 52.3 °F /  11.3 °C 30.17in /  1021.6hPa NW 2.7mph /  4.3km/h 9mph /  14.5km/h 56.8% 0.00in /  0mm 691 W/m2
11:09 68 °F /  20 °C 51.5 °F /  10.8 °C 30.17in /  1021.6hPa NW 2mph /  3.2km/h 9mph /  14.5km/h 55.5% 0.00in /  0mm 703 W/m2
11:14 68 °F /  20 °C 51.6 °F /  10.9 °C 30.17in /  1021.6hPa NW 1.7mph /  2.7km/h 9mph /  14.5km/h 55.6% 0.00in /  0mm 708 W/m2
11:19 68.1 °F /  20.1 °C 51.2 °F /  10.7 °C 30.17in /  1021.6hPa WNW 4.1mph /  6.6km/h 10mph /  16.1km/h 54.8% 0.00in /  0mm 729 W/m2
11:24 67.9 °F /  19.9 °C 51.2 °F /  10.7 °C 30.17in /  1021.6hPa WNW 2.7mph /  4.3km/h 10mph /  16.1km/h 55% 0.00in /  0mm 729 W/m2
11:29 67.8 °F /  19.9 °C 51.1 °F /  10.6 °C 30.17in /  1021.6hPa WNW 2.6mph /  4.2km/h 10mph /  16.1km/h 55% 0.00in /  0mm 640 W/m2
11:34 67.8 °F /  19.9 °C 51.2 °F /  10.7 °C 30.17in /  1021.6hPa WNW 1.7mph /  2.7km/h 10mph /  16.1km/h 55.3% 0.00in /  0mm 290 W/m2
11:39 67.9 °F /  19.9 °C 51.5 °F /  10.8 °C 30.17in /  1021.6hPa WNW 1.7mph /  2.7km/h 8mph /  12.9km/h 55.8% 0.00in /  0mm 352 W/m2
11:44 68.1 °F /  20.1 °C 52.1 °F /  11.2 °C 30.17in /  1021.6hPa NNW 1.3mph /  2.1km/h 8mph /  12.9km/h 56.6% 0.00in /  0mm 209 W/m2
11:49 68 °F /  20 °C 50.9 °F /  10.5 °C 30.17in /  1021.6hPa WNW 1.8mph /  2.9km/h 10mph /  16.1km/h 54.3% 0.00in /  0mm 142 W/m2
11:54 67.5 °F /  19.7 °C 49.7 °F /  9.8 °C 30.16in /  1021.2hPa WNW 5.8mph /  9.3km/h 12mph /  19.3km/h 52.9% 0.00in /  0mm 383 W/m2
11:59 66.9 °F /  19.4 °C 49.6 °F /  9.8 °C 30.16in /  1021.2hPa WNW 3.2mph /  5.1km/h 12mph /  19.3km/h 53.8% 0.00in /  0mm 383 W/m2
12:00 66.7 °F /  19.3 °C 49.6 °F /  9.8 °C 30.16in /  1021.2hPa WNW 5mph /  8km/h 12mph /  19.3km/h 54% 0.00in /  0mm 327 W/m2
12:09 66.6 °F /  19.2 °C 49.6 °F /  9.8 °C 30.17in /  1021.6hPa WNW 4.4mph /  7.1km/h 12mph /  19.3km/h 54.4% 0.00in /  0mm 269 W/m2
12:14 66.5 °F /  19.2 °C 49.1 °F /  9.5 °C 30.16in /  1021.2hPa WNW 6mph /  9.7km/h 14mph /  22.5km/h 53.4% 0.00in /  0mm 269 W/m2
12:19 66.3 °F /  19.1 °C 49.2 °F /  9.6 °C 30.16in /  1021.2hPa West 3.6mph /  5.8km/h 14mph /  22.5km/h 54.1% 0.00in /  0mm 606 W/m2
12:24 66.5 °F /  19.2 °C 49.7 °F /  9.8 °C 30.17in /  1021.6hPa WNW 3.2mph /  5.1km/h 14mph /  22.5km/h 54.8% 0.00in /  0mm 575 W/m2
12:29 66.8 °F /  19.3 °C 49.8 °F /  9.9 °C 30.16in /  1021.2hPa NW 3.4mph /  5.5km/h 14mph /  22.5km/h 54.5% 0.00in /  0mm 585 W/m2
12:34 67 °F /  19.4 °C 48.9 °F /  9.4 °C 30.17in /  1021.6hPa WNW 4.4mph /  7.1km/h 14mph /  22.5km/h 52.1% 0.00in /  0mm 547 W/m2
12:39 67 °F /  19.4 °C 49.5 °F /  9.7 °C 30.16in /  1021.2hPa NW 1.4mph /  2.3km/h 14mph /  22.5km/h 53.3% 0.00in /  0mm 118 W/m2
12:44 67 °F /  19.4 °C 49.1 °F /  9.5 °C 30.16in /  1021.2hPa WNW 5.8mph /  9.3km/h 14mph /  22.5km/h 52.5% 0.00in /  0mm 156 W/m2
12:49 66.7 °F /  19.3 °C 48.1 °F /  8.9 °C 30.16in /  1021.2hPa NW 3.4mph /  5.5km/h 14mph /  22.5km/h 51.3% 0.00in /  0mm 190 W/m2
12:54 66.5 °F /  19.2 °C 48.4 °F /  9.1 °C 30.16in /  1021.2hPa NW 2.5mph /  4km/h 14mph /  22.5km/h 52% 0.00in /  0mm 95 W/m2
12:59 66.7 °F /  19.3 °C 48.8 °F /  9.3 °C 30.16in /  1021.2hPa NW 5.5mph /  8.9km/h 14mph /  22.5km/h 52.5% 0.00in /  0mm 506 W/m2
13:04 66.8 °F /  19.3 °C 47.9 °F /  8.8 °C 30.16in /  1021.2hPa NW 4.6mph /  7.4km/h 14mph /  22.5km/h 50.6% 0.00in /  0mm 608 W/m2
13:09 66.9 °F /  19.4 °C 49.1 °F /  9.5 °C 30.16in /  1021.2hPa West 5.1mph /  8.2km/h 13mph /  20.9km/h 52.8% 0.00in /  0mm 165 W/m2
13:14 66.8 °F /  19.3 °C 49.1 °F /  9.5 °C 30.16in /  1021.2hPa WNW 3.2mph /  5.1km/h 13mph /  20.9km/h 52.9% 0.00in /  0mm 169 W/m2
13:19 66.9 °F /  19.4 °C 50.4 °F /  10.2 °C 30.16in /  1021.2hPa West 1.1mph /  1.8km/h 13mph /  20.9km/h 55.3% 0.00in /  0mm 169 W/m2
13:24 66.8 °F /  19.3 °C 49.2 °F /  9.6 °C 30.16in /  1021.2hPa NNW 3.8mph /  6.1km/h 13mph /  20.9km/h 53.2% 0.00in /  0mm 214 W/m2
13:29 66.3 °F /  19.1 °C 48.7 °F /  9.3 °C 30.16in /  1021.2hPa NNW 2.8mph /  4.5km/h 13mph /  20.9km/h 52.9% 0.00in /  0mm 188 W/m2
13:34 66.3 °F /  19.1 °C 49.1 °F /  9.5 °C 30.15in /  1020.9hPa WNW 2.5mph /  4km/h 13mph /  20.9km/h 53.9% 0.00in /  0mm 134 W/m2
13:39 66.1 °F /  18.9 °C 48.6 °F /  9.2 °C 30.15in /  1020.9hPa WNW 2.5mph /  4km/h 11mph /  17.7km/h 53.2% 0.00in /  0mm 336 W/m2
13:44 66 °F /  18.9 °C 49.4 °F /  9.7 °C 30.15in /  1020.9hPa NW 3.8mph /  6.1km/h 11mph /  17.7km/h 55% 0.00in /  0mm 496 W/m2
13:49 66.1 °F /  18.9 °C 49.8 °F /  9.9 °C 30.15in /  1020.9hPa WNW 1.5mph /  2.4km/h 11mph /  17.7km/h 55.7% 0.00in /  0mm 450 W/m2
13:54 66.4 °F /  19.1 °C 50 °F /  10 °C 30.15in /  1020.9hPa NW 1.8mph /  2.9km/h 11mph /  17.7km/h 55.5% 0.00in /  0mm 192 W/m2
13:59 66.8 °F /  19.3 °C 49.7 °F /  9.8 °C 30.14in /  1020.5hPa WNW 2.7mph /  4.3km/h 11mph /  17.7km/h 54.2% 0.00in /  0mm 232 W/m2
14:04 67.1 °F /  19.5 °C 50.4 °F /  10.2 °C 30.14in /  1020.5hPa WNW 2.2mph /  3.5km/h 12mph /  19.3km/h 55% 0.00in /  0mm 350 W/m2
14:09 67.3 °F /  19.6 °C 50.1 °F /  10.1 °C 30.14in /  1020.5hPa WNW 2.8mph /  4.5km/h 12mph /  19.3km/h 54% 0.00in /  0mm 230 W/m2
14:14 67.2 °F /  19.6 °C 49.8 °F /  9.9 °C 30.14in /  1020.5hPa WNW 1.2mph /  1.9km/h 12mph /  19.3km/h 53.6% 0.00in /  0mm 211 W/m2
14:19 67.2 °F /  19.6 °C 50.3 °F /  10.2 °C 30.14in /  1020.5hPa WNW 4.8mph /  7.7km/h 12mph /  19.3km/h 54.6% 0.00in /  0mm 195 W/m2
14:24 67.2 °F /  19.6 °C 49 °F /  9.4 °C 30.14in /  1020.5hPa WNW 5.1mph /  8.2km/h 12mph /  19.3km/h 52% 0.00in /  0mm 137 W/m2
14:29 67 °F /  19.4 °C 49.5 °F /  9.7 °C 30.13in /  1020.2hPa West 3mph /  4.8km/h 12mph /  19.3km/h 53.4% 0.00in /  0mm 134 W/m2
14:34 66.6 °F /  19.2 °C 49 °F /  9.4 °C 30.13in /  1020.2hPa WSW 1.9mph /  3.1km/h 12mph /  19.3km/h 53.1% 0.00in /  0mm 105 W/m2
14:39 66.2 °F /  19 °C 49.2 °F /  9.6 °C 30.13in /  1020.2hPa West 1.8mph /  2.9km/h 10mph /  16.1km/h 54.3% 0.00in /  0mm 72 W/m2
14:44 65.8 °F /  18.8 °C 49.4 °F /  9.7 °C 30.13in /  1020.2hPa West 1.3mph /  2.1km/h 10mph /  16.1km/h 55.4% 0.00in /  0mm 163 W/m2
14:49 65.6 °F /  18.7 °C 49.1 °F /  9.5 °C 30.13in /  1020.2hPa WSW 1.9mph /  3.1km/h 10mph /  16.1km/h 55.2% 0.00in /  0mm 102 W/m2
14:54 65.5 °F /  18.6 °C 49.1 °F /  9.5 °C 30.13in /  1020.2hPa West 4.1mph /  6.6km/h 10mph /  16.1km/h 55.4% 0.00in /  0mm 156 W/m2
14:59 65.3 °F /  18.5 °C 48.9 °F /  9.4 °C 30.13in /  1020.2hPa NW 1.3mph /  2.1km/h 10mph /  16.1km/h 55.2% 0.00in /  0mm 190 W/m2
15:04 65.5 °F /  18.6 °C 49 °F /  9.4 °C 30.12in /  1019.9hPa WNW 1.1mph /  1.8km/h 10mph /  16.1km/h 55.3% 0.00in /  0mm 188 W/m2
15:09 65.7 °F /  18.7 °C 49 °F /  9.4 °C 30.12in /  1019.9hPa West 2.7mph /  4.3km/h 11mph /  17.7km/h 54.8% 0.00in /  0mm 74 W/m2
15:14 66 °F /  18.9 °C 48.9 °F /  9.4 °C 30.13in /  1020.2hPa WSW 2.8mph /  4.5km/h 11mph /  17.7km/h 53.9% 0.00in /  0mm 98 W/m2
15:19 66.2 °F /  19 °C 48.5 °F /  9.2 °C 30.13in /  1020.2hPa West 3.1mph /  5km/h 11mph /  17.7km/h 52.8% 0.00in /  0mm 192 W/m2
15:24 66.1 °F /  18.9 °C 48.8 °F /  9.3 °C 30.13in /  1020.2hPa West 2.4mph /  3.9km/h 11mph /  17.7km/h 53.5% 0.00in /  0mm 192 W/m2
15:29 65.9 °F /  18.8 °C 49.2 °F /  9.6 °C 30.13in /  1020.2hPa WNW 1.7mph /  2.7km/h 11mph /  17.7km/h 54.8% 0.00in /  0mm 67 W/m2
15:34 65.7 °F /  18.7 °C 49.1 °F /  9.5 °C 30.13in /  1020.2hPa WNW 1.4mph /  2.3km/h 11mph /  17.7km/h 55% 0.00in /  0mm 77 W/m2
15:39 65.4 °F /  18.6 °C 48.1 °F /  8.9 °C 30.12in /  1019.9hPa WNW 0.8mph /  1.3km/h 9mph /  14.5km/h 53.4% 0.00in /  0mm 149 W/m2
15:44 65.3 °F /  18.5 °C 48.3 °F /  9.1 °C 30.12in /  1019.9hPa NW 0.9mph /  1.4km/h 9mph /  14.5km/h 54.1% 0.00in /  0mm 107 W/m2
15:49 65.4 °F /  18.6 °C 48.6 °F /  9.2 °C 30.12in /  1019.9hPa NW 1.1mph /  1.8km/h 9mph /  14.5km/h 54.5% 0.00in /  0mm 60 W/m2
15:54 65.6 °F /  18.7 °C 48.4 °F /  9.1 °C 30.12in /  1019.9hPa NW 1.1mph /  1.8km/h 9mph /  14.5km/h 53.8% 0.00in /  0mm 83 W/m2
15:59 65.8 °F /  18.8 °C 48.7 °F /  9.3 °C 30.12in /  1019.9hPa NW 0.3mph /  0.5km/h 9mph /  14.5km/h 54% 0.00in /  0mm 83 W/m2
16:00 65.9 °F /  18.8 °C 48.3 °F /  9.1 °C 30.12in /  1019.9hPa Calm   9mph /  14.5km/h 53% 0.00in /  0mm 39 W/m2
16:09 66.1 °F /  18.9 °C 49.3 °F /  9.6 °C 30.12in /  1019.9hPa NW 2.1mph /  3.4km/h 6mph /  9.7km/h 54.7% 0.00in /  0mm 77 W/m2
16:14 66.3 °F /  19.1 °C 49.2 °F /  9.6 °C 30.12in /  1019.9hPa NW 0.7mph /  1.1km/h 6mph /  9.7km/h 54% 0.00in /  0mm 67 W/m2
16:19 66.4 °F /  19.1 °C 48.8 °F /  9.3 °C 30.12in /  1019.9hPa WNW 2.2mph /  3.5km/h 9mph /  14.5km/h 53% 0.00in /  0mm 47 W/m2
16:24 66.4 °F /  19.1 °C 49.1 °F /  9.5 °C 30.12in /  1019.9hPa NW 2.7mph /  4.3km/h 10mph /  16.1km/h 53.8% 0.00in /  0mm 32 W/m2
16:29 66.3 °F /  19.1 °C 48.1 °F /  8.9 °C 30.12in /  1019.9hPa WNW 4.8mph /  7.7km/h 13mph /  20.9km/h 52% 0.00in /  0mm 26 W/m2
16:34 66.2 °F /  19 °C 48.7 °F /  9.3 °C 30.12in /  1019.9hPa WNW 3.8mph /  6.1km/h 13mph /  20.9km/h 53.3% 0.00in /  0mm 26 W/m2
16:39 66.1 °F /  18.9 °C 49.4 °F /  9.7 °C 30.12in /  1019.9hPa WNW 0.8mph /  1.3km/h 10mph /  16.1km/h 54.9% 0.00in /  0mm 25 W/m2
16:44 66 °F /  18.9 °C 49.4 °F /  9.7 °C 30.13in /  1020.2hPa WNW 1.9mph /  3.1km/h 10mph /  16.1km/h 55.1% 0.00in /  0mm 25 W/m2
16:49 65.9 °F /  18.8 °C 48.8 °F /  9.3 °C 30.13in /  1020.2hPa West 4.6mph /  7.4km/h 10mph /  16.1km/h 54% 0.00in /  0mm 25 W/m2
16:54 65.8 °F /  18.8 °C 48.2 °F /  9 °C 30.13in /  1020.2hPa West 3.3mph /  5.3km/h 10mph /  16.1km/h 53% 0.00in /  0mm 23 W/m2
16:59 65.7 °F /  18.7 °C 48.6 °F /  9.2 °C 30.13in /  1020.2hPa WNW 2.3mph /  3.7km/h 10mph /  16.1km/h 54% 0.00in /  0mm 23 W/m2
17:04 65.6 °F /  18.7 °C 48.7 °F /  9.3 °C 30.13in /  1020.2hPa West 2.3mph /  3.7km/h 10mph /  16.1km/h 54.3% 0.00in /  0mm 23 W/m2
17:09 65.5 °F /  18.6 °C 48.1 °F /  8.9 °C 30.13in /  1020.2hPa WNW 2.7mph /  4.3km/h 9mph /  14.5km/h 53.5% 0.00in /  0mm 21 W/m2
17:14 65.3 °F /  18.5 °C 48 °F /  8.9 °C 30.13in /  1020.2hPa WNW 2.2mph /  3.5km/h 9mph /  14.5km/h 53.6% 0.00in /  0mm 23 W/m2
17:19 65 °F /  18.3 °C 48.4 °F /  9.1 °C 30.13in /  1020.2hPa West 0.4mph /  0.6km/h 9mph /  14.5km/h 54.8% 0.00in /  0mm 25 W/m2
17:24 64.9 °F /  18.3 °C 48.3 °F /  9.1 °C 30.13in /  1020.2hPa WNW 1.5mph /  2.4km/h 9mph /  14.5km/h 55% 0.00in /  0mm 28 W/m2
17:29 64.7 °F /  18.2 °C 48.3 °F /  9.1 °C 30.13in /  1020.2hPa WNW 1.9mph /  3.1km/h 9mph /  14.5km/h 55.4% 0.00in /  0mm 35 W/m2
17:34 64.5 °F /  18.1 °C 48 °F /  8.9 °C 30.13in /  1020.2hPa WNW 1.6mph /  2.6km/h 9mph /  14.5km/h 55% 0.00in /  0mm 33 W/m2
17:39 64.4 °F /  18 °C 48.5 °F /  9.2 °C 30.14in /  1020.5hPa WNW 0.6mph /  1km/h 5mph /  8km/h 56.3% 0.00in /  0mm 19 W/m2
17:44 64.2 °F /  17.9 °C 48.4 °F /  9.1 °C 30.14in /  1020.5hPa WNW 0.2mph /  0.3km/h 5mph /  8km/h 56.4% 0.00in /  0mm 14 W/m2
17:49 64 °F /  17.8 °C 48.9 °F /  9.4 °C 30.14in /  1020.5hPa Calm   5mph /  8km/h 57.8% 0.00in /  0mm 12 W/m2
17:54 63.8 °F /  17.7 °C 48.8 °F /  9.3 °C 30.14in /  1020.5hPa WNW 0.1mph /  0.2km/h 5mph /  8km/h 58% 0.00in /  0mm 12 W/m2
17:59 63.6 °F /  17.6 °C 48.9 °F /  9.4 °C 30.14in /  1020.5hPa WNW 0.4mph /  0.6km/h 5mph /  8km/h 58.9% 0.00in /  0mm 11 W/m2
18:04 63.3 °F /  17.4 °C 48.9 °F /  9.4 °C 30.14in /  1020.5hPa Calm   5mph /  8km/h 59.4% 0.00in /  0mm 9 W/m2
18:09 63.1 °F /  17.3 °C 49 °F /  9.4 °C 30.14in /  1020.5hPa Calm     60.1% 0.00in /  0mm 9 W/m2
18:14 62.8 °F /  17.1 °C 49.3 °F /  9.6 °C 30.15in /  1020.9hPa WNW 0.1mph /  0.2km/h 1mph /  1.6km/h 61.1% 0.00in /  0mm 9 W/m2
18:19 62.6 °F /  17 °C 49.4 °F /  9.7 °C 30.15in /  1020.9hPa Calm   1mph /  1.6km/h 62% 0.00in /  0mm 7 W/m2
18:24 62.3 °F /  16.8 °C 49.5 °F /  9.7 °C 30.15in /  1020.9hPa Calm   1mph /  1.6km/h 62.8% 0.00in /  0mm 5 W/m2
18:29 62.1 °F /  16.7 °C 49.4 °F /  9.7 °C 30.16in /  1021.2hPa Calm   1mph /  1.6km/h 63.2% 0.00in /  0mm 0 W/m2
18:34 61.8 °F /  16.6 °C 49.3 °F /  9.6 °C 30.16in /  1021.2hPa Calm   1mph /  1.6km/h 63.6% 0.00in /  0mm 0 W/m2
18:39 61.5 °F /  16.4 °C 49.4 °F /  9.7 °C 30.16in /  1021.2hPa Calm     64.5% 0.00in /  0mm 0 W/m2
18:44 61.2 °F /  16.2 °C 49.4 °F /  9.7 °C 30.15in /  1020.9hPa Calm     65% 0.00in /  0mm 0 W/m2
18:49 60.9 °F /  16.1 °C 49.5 °F /  9.7 °C 30.15in /  1020.9hPa Calm     66% 0.00in /  0mm 0 W/m2
18:54 60.6 °F /  15.9 °C 49.2 °F /  9.6 °C 30.15in /  1020.9hPa Calm     66% 0.00in /  0mm 0 W/m2
18:59 60.3 °F /  15.7 °C 49.1 °F /  9.5 °C 30.15in /  1020.9hPa Calm     66.4% 0.00in /  0mm 0 W/m2
19:04 60 °F /  15.6 °C 49.1 °F /  9.5 °C 30.15in /  1020.9hPa Calm     67.2% 0.00in /  0mm 0 W/m2
19:09 59.7 °F /  15.4 °C 49.3 °F /  9.6 °C 30.15in /  1020.9hPa Calm     68.4% 0.00in /  0mm 0 W/m2
19:14 59.4 °F /  15.2 °C 49.5 °F /  9.7 °C 30.15in /  1020.9hPa Calm     69.5% 0.00in /  0mm 0 W/m2
19:19 59.1 °F /  15.1 °C 49.3 °F /  9.6 °C 30.15in /  1020.9hPa Calm     70% 0.00in /  0mm 0 W/m2
19:24 58.8 °F /  14.9 °C 49.4 °F /  9.7 °C 30.16in /  1021.2hPa Calm     71% 0.00in /  0mm 0 W/m2
19:29 58.5 °F /  14.7 °C 49.2 °F /  9.6 °C 30.16in /  1021.2hPa Calm     71.3% 0.00in /  0mm 0 W/m2
19:34 58.2 °F /  14.6 °C 49.4 °F /  9.7 °C 30.16in /  1021.2hPa Calm     72.4% 0.00in /  0mm 0 W/m2
19:39 57.9 °F /  14.4 °C 49.5 °F /  9.7 °C 30.16in /  1021.2hPa Calm     73.5% 0.00in /  0mm 0 W/m2
19:44 57.7 °F /  14.3 °C 49.4 °F /  9.7 °C 30.16in /  1021.2hPa Calm     74% 0.00in /  0mm 0 W/m2
19:49 57.4 °F /  14.1 °C 49.2 °F /  9.6 °C 30.16in /  1021.2hPa Calm     74% 0.00in /  0mm 0 W/m2
19:54 57.2 °F /  14 °C 49.3 °F /  9.6 °C 30.16in /  1021.2hPa Calm     74.8% 0.00in /  0mm 0 W/m2
19:59 57 °F /  13.9 °C 49.3 °F /  9.6 °C 30.16in /  1021.2hPa Calm     75.5% 0.00in /  0mm 0 W/m2
20:00 56.8 °F /  13.8 °C 49.3 °F /  9.6 °C 30.16in /  1021.2hPa Calm     76% 0.00in /  0mm 0 W/m2
20:09 56.5 °F /  13.6 °C 49.4 °F /  9.7 °C 30.16in /  1021.2hPa Calm     77% 0.00in /  0mm 0 W/m2
20:14 56.3 °F /  13.5 °C 49.3 °F /  9.6 °C 30.16in /  1021.2hPa Calm     77.4% 0.00in /  0mm 0 W/m2
20:19 56 °F /  13.3 °C 49.3 °F /  9.6 °C 30.16in /  1021.2hPa Calm     78% 0.00in /  0mm 0 W/m2
20:24 55.8 °F /  13.2 °C 49.3 °F /  9.6 °C 30.16in /  1021.2hPa Calm     78.7% 0.00in /  0mm 0 W/m2
20:29 55.5 °F /  13.1 °C 49.1 °F /  9.5 °C 30.17in /  1021.6hPa Calm     79% 0.00in /  0mm 0 W/m2
20:34 55.3 °F /  12.9 °C 49.2 °F /  9.6 °C 30.16in /  1021.2hPa Calm     79.8% 0.00in /  0mm 0 W/m2
20:39 55.1 °F /  12.8 °C 49.1 °F /  9.5 °C 30.17in /  1021.6hPa Calm     80% 0.00in /  0mm 0 W/m2
20:44 55 °F /  12.8 °C 49.2 °F /  9.6 °C 30.17in /  1021.6hPa Calm     80.8% 0.00in /  0mm 0 W/m2
20:49 54.9 °F /  12.7 °C 49.1 °F /  9.5 °C 30.17in /  1021.6hPa Calm     81% 0.00in /  0mm 0 W/m2
20:54 54.7 °F /  12.6 °C 49 °F /  9.4 °C 30.17in /  1021.6hPa Calm     81% 0.00in /  0mm 0 W/m2
20:59 54.6 °F /  12.6 °C 48.9 °F /  9.4 °C 30.17in /  1021.6hPa Calm     81% 0.00in /  0mm 0 W/m2
21:04 54.5 °F /  12.5 °C 49 °F /  9.4 °C 30.17in /  1021.6hPa Calm     81.5% 0.00in /  0mm 0 W/m2
21:09 54.4 °F /  12.4 °C 49 °F /  9.4 °C 30.17in /  1021.6hPa Calm     81.8% 0.00in /  0mm 0 W/m2
21:14 54.3 °F /  12.4 °C 48.9 °F /  9.4 °C 30.16in /  1021.2hPa Calm     82% 0.00in /  0mm 0 W/m2
21:19 54.2 °F /  12.3 °C 48.8 °F /  9.3 °C 30.17in /  1021.6hPa Calm     82% 0.00in /  0mm 0 W/m2
21:24 54.2 °F /  12.3 °C 49 °F /  9.4 °C 30.16in /  1021.2hPa Calm     82.6% 0.00in /  0mm 0 W/m2
21:29 54.1 °F /  12.3 °C 49 °F /  9.4 °C 30.17in /  1021.6hPa Calm     82.8% 0.00in /  0mm 0 W/m2
21:34 54 °F /  12.2 °C 48.8 °F /  9.3 °C 30.17in /  1021.6hPa Calm     82.4% 0.00in /  0mm 0 W/m2
21:39 53.9 °F /  12.2 °C 48.8 °F /  9.3 °C 30.17in /  1021.6hPa Calm     83% 0.00in /  0mm 0 W/m2
21:44 53.7 °F /  12.1 °C 48.7 °F /  9.3 °C 30.17in /  1021.6hPa Calm     83% 0.00in /  0mm 0 W/m2
21:49 53.6 °F /  12 °C 48.6 °F /  9.2 °C 30.17in /  1021.6hPa Calm     83% 0.00in /  0mm 0 W/m2
21:54 53.5 °F /  11.9 °C 48.7 °F /  9.3 °C 30.17in /  1021.6hPa Calm     83.6% 0.00in /  0mm 0 W/m2
21:59 53.4 °F /  11.9 °C 48.7 °F /  9.3 °C 30.17in /  1021.6hPa Calm     84% 0.00in /  0mm 0 W/m2
22:04 53.3 °F /  11.8 °C 48.7 °F /  9.3 °C 30.17in /  1021.6hPa Calm     84.4% 0.00in /  0mm 0 W/m2
22:09 53.1 °F /  11.7 °C 48.7 °F /  9.3 °C 30.17in /  1021.6hPa Calm     85% 0.00in /  0mm 0 W/m2
22:14 53 °F /  11.7 °C 48.6 °F /  9.2 °C 30.17in /  1021.6hPa Calm     85% 0.00in /  0mm 0 W/m2
22:19 52.9 °F /  11.6 °C 48.8 °F /  9.3 °C 30.17in /  1021.6hPa Calm     85.8% 0.00in /  0mm 0 W/m2
22:24 52.8 °F /  11.6 °C 48.7 °F /  9.3 °C 30.17in /  1021.6hPa Calm     86% 0.00in /  0mm 0 W/m2
22:29 52.7 °F /  11.5 °C 48.6 °F /  9.2 °C 30.17in /  1021.6hPa Calm     86% 0.00in /  0mm 0 W/m2
22:34 52.5 °F /  11.4 °C 48.5 °F /  9.2 °C 30.17in /  1021.6hPa Calm     86% 0.00in /  0mm 0 W/m2
22:39 52.3 °F /  11.3 °C 48.2 °F /  9 °C 30.17in /  1021.6hPa Calm     86% 0.00in /  0mm 0 W/m2
22:44 52.1 °F /  11.2 °C 48.2 °F /  9 °C 30.17in /  1021.6hPa Calm     86.5% 0.00in /  0mm 0 W/m2
22:49 51.9 °F /  11.1 °C 48.2 °F /  9 °C 30.17in /  1021.6hPa Calm     87% 0.00in /  0mm 0 W/m2
22:54 51.8 °F /  11 °C 48 °F /  8.9 °C 30.17in /  1021.6hPa Calm     87% 0.00in /  0mm 0 W/m2
22:59 51.7 °F /  10.9 °C 48 °F /  8.9 °C 30.17in /  1021.6hPa Calm     87.3% 0.00in /  0mm 0 W/m2
23:04 51.5 °F /  10.8 °C 48.1 °F /  8.9 °C 30.17in /  1021.6hPa Calm     88% 0.00in /  0mm 0 W/m2
23:09 51.3 °F /  10.7 °C 47.9 °F /  8.8 °C 30.17in /  1021.6hPa Calm     88% 0.00in /  0mm 0 W/m2
23:14 51.2 °F /  10.7 °C 47.8 °F /  8.8 °C 30.17in /  1021.6hPa Calm     88% 0.00in /  0mm 0 W/m2
23:19 51.1 °F /  10.6 °C 47.8 °F /  8.8 °C 30.17in /  1021.6hPa Calm     88.4% 0.00in /  0mm 0 W/m2
23:24 51.1 °F /  10.6 °C 48.4 °F /  9.1 °C 30.17in /  1021.6hPa Calm     90.5% 0.00in /  0mm 0 W/m2
23:29 51.1 °F /  10.6 °C 48 °F /  8.9 °C 30.17in /  1021.6hPa Calm     89.1% 0.00in /  0mm 0 W/m2
23:34 51 °F /  10.6 °C 47.9 °F /  8.8 °C 30.17in /  1021.6hPa Calm     89% 0.00in /  0mm 0 W/m2
23:39 51 °F /  10.6 °C 47.9 °F /  8.8 °C 30.17in /  1021.6hPa Calm     89% 0.00in /  0mm 0 W/m2
23:44 50.9 °F /  10.5 °C 47.8 °F /  8.8 °C 30.16in /  1021.2hPa Calm     89% 0.00in /  0mm 0 W/m2
23:49 50.8 °F /  10.4 °C 47.9 °F /  8.8 °C 30.16in /  1021.2hPa Calm     89.6% 0.00in /  0mm 0 W/m2
23:54 50.7 °F /  10.4 °C 47.9 °F /  8.8 °C 30.16in /  1021.2hPa Calm     90% 0.00in /  0mm 0 W/m2
23:59 50.6 °F /  10.3 °C 47.7 °F /  8.7 °C 30.16in /  1021.2hPa Calm     89.7% 0.00in /  0mm 0 W/m2
Hartford County Weather
Compliments of Weather Underground - 2 mb